Sony PlayStation 3

Page 
 of 98
Records 1 to 50 of 4897
  
ID
Release
Released
Files
Size
DAT
game group
4990 FIFA.19.PS3-DUPLEX 2018-09-29 96 8.69 GiB PS3 Scene 2018 DUPLEX
4989 FIFA_19_JPN_PS3-HR 2018-09-28 57 5.02 GiB PS3 Scene 2018 HR
4987 FIFA_18_JPN_PS3-HR 2018-05-10 58 5.03 GiB PS3 Scene 2018 HR
4986 Cars_3_Driven_to_Win_DiRFiX_EUR_PS3-Googlecus 2018-02-08 1 2.12 KiB PS3 Scene 2018 Googlecus
4985 Cars_3_Driven_to_Win_EUR_PS3-Googelcus 2018-02-08 92 4.17 GiB PS3 Scene 2018 Googelcus
4984 Adventure_Time_Finn_and_Jake_Investigation_EUR_READNFO_PS3-Googlecus 2018-02-07 28 1.21 GiB PS3 Scene 2018 Googlecus
4982 Need.for.Speed.Shift.CHT.PS3-iND 2017-12-04 41 3.54 GiB PS3 Scene 2017 iND
4981 Turning_Point_Fall_of_Liberty_EUR_MULTi3_READNFO_PS3-Googlecus 2017-11-12 57 5.02 GiB PS3 Scene 2017 Googlecus
4976 Just.Dance.2018.PS3-DUPLEX 2017-10-29 68 12.1 GiB PS3 Scene 2017 DUPLEX
4975 The_Godfather_II_EUR_MULTi3_PS3-Googlecus 2017-10-25 83 7.54 GiB PS3 Scene 2017 Googlecus
4974 Guitar_Hero_World_Tour_EUR_MULTi5_PS3-Googlecus 2017-10-18 68 5.99 GiB PS3 Scene 2017 Googlecus
4973 F.E.A.R._EUR_PS3-Googlecus 2017-10-08 72 3.22 GiB PS3 Scene 2017 Googlecus
4972 FIFA.18.PS3-DUPLEX 2017-09-27 97 8.77 GiB PS3 Scene 2017 DUPLEX
4971 NBA_2K18_USA_PS3-HR 2017-09-16 91 8.28 GiB PS3 Scene 2017 HR
4970 NBA.2K18.PS3-DUPLEX 2017-09-14 91 8.29 GiB PS3 Scene 2017 DUPLEX
4969 Winning_Eleven_2018_JPN_PS3-HR 2017-09-14 64 5.73 GiB PS3 Scene 2017 HR
4968 Pro.Evolution.Soccer.2018.PS3-DUPLEX 2017-09-13 85 7.67 GiB PS3 Scene 2017 DUPLEX
4967 Call_of_Duty_Modern_Warfare_3_EUR_iTALiAN_PS3-Googlecus 2017-08-10 90 8.08 GiB PS3 Scene 2017 Googlecus
4966 Call_of_Duty_Modern_Warfare_2_EUR_iTALiAN_PS3-Googlecus 2017-07-19 80 7.16 GiB PS3 Scene 2017 Googlecus
4688 Call_of_Duty_4_Modern_Warfare_EUR_iTALiAN_PS3-Googlecus 2017-07-12 60 5.25 GiB PS3 Scene 2017 Googlecus
4687 Cars.3.Driven.to.Win.PS3-DUPLEX 2017-06-17 52 4.65 GiB PS3 Scene 2017 DUPLEX
4686 Kung_Fu_Rider_EUR_MULTi13_PS3-Googlecus 2017-06-10 18 737.88 MiB PS3 Scene 2017 Googlecus
4685 Persona.5.PS3-DUPLEX 2017-05-18 87 19.78 GiB PS3 Scene 2017 DUPLEX
4684 Shaun_White_Skateboarding_EUR_PS3-Googlecus 2017-04-30 98 4.43 GiB PS3 Scene 2017 Googlecus
4683 Prince_of_Persia_The_Forgotten_Sands_EUR_MULTi6_PS3-Googlecus 2017-03-28 89 4.04 GiB PS3 Scene 2017 Googlecus
4682 Need_For_Speed_Prostreet_EUR_READNFO_PS3-Googlecus 2017-03-28 44 3.9 GiB PS3 Scene 2017 Googlecus
4671 Winning_Post_8_2017_JPN_PS3-HR 2017-03-07 77 6.9 GiB PS3 Scene 2017 HR
4670 Sangokushi_13_with_Power_Up_Kit_JPN_PS3-HR 2017-03-01 76 6.82 GiB PS3 Scene 2017 HR
4669 Super.Mega.Baseball.PSN.PS3-DUPLEX 2017-02-25 7 235.69 MiB PS3 Scene 2017 DUPLEX
4668 Star.Wars.Rogue.One.Pinball.PSN.PS3-DUPLEX 2017-02-25 22 938.92 MiB PS3 Scene 2017 DUPLEX
4667 Sengoku_Musou_Sanada_Maru_JPN_PS3-HR 2017-01-12 80 10.65 GiB PS3 Scene 2017 HR
4666 Adventure_Time_Nameless_Oukoku_no_3-nin_no_Princess_JPN_PS3-HR 2017-01-12 9 331.32 MiB PS3 Scene 2017 HR
4665 Grand_Theft_Auto_San_Andreas_EUR_PS3-ANTiDOTE 2016-12-03 39 1.7 GiB PS3 Scene 2016 ANTiDOTE
4664 X.Factor.EUR.PS3-ATAX 2016-11-24 67 2.99 GiB PS3 Scene 2016 ATAX
4663 Pro_Evolution_Soccer_2017_USA_PS3-CLANDESTiNE 2016-11-24 76 6.82 GiB PS3 Scene 2016 CLANDESTiNE
4662 Leisure.Suit.Larry.Box.Office.Bust.EUR.PS3-ATAX 2016-11-24 42 1.82 GiB PS3 Scene 2016 ATAX
4661 Guitar.Hero.Van.Halen.EUR.PS3-ATAX 2016-11-17 63 5.67 GiB PS3 Scene 2016 ATAX
4660 Where.the.Wild.Things.Are.EUR.PS3-ATAX 2016-11-15 74 6.68 GiB PS3 Scene 2016 ATAX
4659 Singstar_Vol_3_EUR_iTALiAN_READNFO_PS3-Googlecus 2016-11-14 72 9.71 GiB PS3 Scene 2016 Googlecus
4658 Lego_Star_Wars_The_Force_Awakens_EUR_PS3-ANTiDOTE 2016-11-13 51 4.56 GiB PS3 Scene 2016 ANTiDOTE
4657 Utawarerumono_Futari_no_Hakuoro_JPN_PS3-HR 2016-11-12 73 6.46 GiB PS3 Scene 2016 HR
4656 FIFA_17_JPN_PS3-HR 2016-11-12 66 5.92 GiB PS3 Scene 2016 HR
4655 BlazBlue_Central_Fiction_USA_PS3-CLANDESTiNE 2016-11-12 80 14.44 GiB PS3 Scene 2016 CLANDESTiNE
4654 Handball.17.PS3-DUPLEX 2016-11-11 18 741.86 MiB PS3 Scene 2016 DUPLEX
4653 The.Legend.of.Heroes.Trails.of.Cold.Steel.II.PS3-DUPLEX 2016-11-09 101 4.57 GiB PS3 Scene 2016 DUPLEX
4652 LEGO_Star_Wars_Force_no_Kakusei_JPN_PS3-HR 2016-11-06 49 4.31 GiB PS3 Scene 2016 HR
4651 BlazBlue_Centralfiction_JPN_PS3-HR 2016-11-06 80 14.19 GiB PS3 Scene 2016 HR
4650 BlazBlue.Central.Fiction.PS3-DUPLEX 2016-11-04 79 14.18 GiB PS3 Scene 2016 DUPLEX
4649 Minecraft_Story_Mode_The_Complete_Adventure_USA_PS3-CLANDESTiNE 2016-11-02 58 5.15 GiB PS3 Scene 2016 CLANDESTiNE
4648 Minecraft_Story_Mode_The_Complete_Adventure_PS3-RESPAWN 2016-10-28 58 5.06 GiB PS3 Scene 2016 RESPAWN